Archiv-/Tagesdaten

--Timestamp---	Temp	Chill	HIndex	Humid	Dewpt	Wind	HiWind	WindDir	Rain	Barom	Solar	ET	UV
--------------	----	-----	------	-----	-----	----	------	-------	----	-----	-----	--	--
20071121 00:05	-1.7	-1.7	-1.7	95	-2.4	3	11	135	0.00	1014.971	0	0.000	0
20071121 00:10	-1.7	-1.7	-1.7	94	-2.6	2	5	135	0.00	1015.208	0	0.000	0
20071121 00:15	-1.8	-1.8	-1.8	94	-2.6	3	6	135	0.00	1015.107	0	0.000	0
20071121 00:20	-1.8	-1.8	-1.8	94	-2.6	3	6	135	0.00	1014.971	0	0.000	0
20071121 00:25	-1.8	-1.8	-1.8	95	-2.5	3	6	135	0.00	1014.870	0	0.000	0
20071121 00:30	-1.7	-1.7	-1.7	95	-2.4	5	8	135	0.00	1015.073	0	0.000	0
20071121 00:35	-1.8	-1.8	-1.8	94	-2.6	5	8	112	0.00	1014.971	0	0.000	0
20071121 00:40	-1.8	-1.8	-1.8	95	-2.5	3	10	112	0.00	1014.971	0	0.000	0
20071121 00:45	-1.8	-1.8	-1.8	94	-2.6	2	5	180	0.00	1014.904	0	0.000	0
20071121 00:50	-1.8	-1.8	-1.8	95	-2.5	3	6	180	0.00	1014.802	0	0.000	0
20071121 00:55	-1.8	-1.8	-1.8	95	-2.5	5	10	135	0.00	1014.768	0	0.000	0
20071121 01:00	-1.8	-1.8	-1.8	95	-2.5	5	10	135	0.00	1014.700	0	0.000	0
20071121 01:05	-1.8	-1.8	-1.8	94	-2.6	3	6	135	0.00	1014.836	0	0.000	0
20071121 01:10	-1.8	-1.8	-1.8	95	-2.5	3	6	135	0.00	1014.904	0	0.000	0
20071121 01:15	-1.8	-1.8	-1.8	94	-2.6	2	5	135	0.00	1014.802	0	0.000	0
20071121 01:20	-1.7	-1.7	-1.7	94	-2.6	0	3	135	0.00	1014.836	0	0.000	0
20071121 01:25	-1.7	-1.7	-1.7	94	-2.6	3	6	67	0.00	1014.836	0	0.000	0
20071121 01:30	-1.8	-1.8	-1.8	94	-2.6	0	3	67	0.00	1014.971	0	0.000	0
20071121 01:35	-1.8	-1.8	-1.8	94	-2.6	2	3	67	0.00	1014.904	0	0.000	0
20071121 01:40	-1.8	-1.8	-1.8	94	-2.6	3	6	135	0.00	1014.904	0	0.000	0
20071121 01:45	-1.8	-1.8	-1.8	94	-2.7	2	8	135	0.00	1014.768	0	0.000	0
20071121 01:50	-1.8	-1.8	-1.8	94	-2.7	5	8	135	0.00	1014.666	0	0.000	0
20071121 01:55	-1.8	-1.8	-1.8	94	-2.7	2	3	135	0.00	1014.700	0	0.000	0
20071121 02:00	-1.8	-1.8	-1.8	94	-2.6	2	5	90	0.00	1014.633	0	0.000	0
20071121 02:05	-1.8	-1.8	-1.8	94	-2.6	3	8	135	0.00	1014.531	0	0.000	0
20071121 02:10	-1.8	-1.8	-1.8	94	-2.6	2	5	135	0.00	1014.700	0	0.000	0
20071121 02:15	-1.8	-1.8	-1.8	94	-2.6	3	6	112	0.00	1014.633	0	0.000	0
20071121 02:20	-1.8	-1.8	-1.8	95	-2.5	2	6	135	0.00	1014.870	0	0.000	0
20071121 02:25	-1.8	-1.8	-1.8	95	-2.5	2	5	135	0.00	1014.802	0	0.000	0
20071121 02:30	-1.8	-1.8	-1.8	95	-2.5	2	5	135	0.00	1014.768	0	0.000	0
20071121 02:35	-1.8	-1.8	-1.8	95	-2.5	5	8	135	0.00	1014.700	0	0.000	0
20071121 02:40	-1.9	-1.9	-1.9	95	-2.6	5	8	135	0.00	1014.836	0	0.000	0
20071121 02:45	-1.8	-1.8	-1.8	95	-2.5	3	8	135	0.00	1014.734	0	0.000	0
20071121 02:50	-1.8	-1.8	-1.8	95	-2.5	2	5	135	0.00	1014.734	0	0.000	0
20071121 02:55	-1.8	-1.8	-1.8	95	-2.5	2	5	135	0.00	1014.768	0	0.000	0
20071121 03:00	-1.8	-1.8	-1.8	95	-2.5	3	8	135	0.00	1014.768	0	0.000	0
20071121 03:05	-1.9	-1.9	-1.9	95	-2.6	5	10	135	0.00	1014.802	0	0.000	0
20071121 03:10	-1.9	-1.9	-1.9	95	-2.6	3	5	135	0.00	1014.666	0	0.000	0
20071121 03:15	-2.0	-2.0	-2.0	95	-2.7	5	10	135	0.00	1014.734	0	0.000	0
20071121 03:20	-2.0	-2.0	-2.0	95	-2.7	5	10	135	0.00	1014.565	0	0.000	0
20071121 03:25	-1.9	-1.9	-1.9	95	-2.6	5	10	135	0.00	1014.192	0	0.000	0
20071121 03:30	-2.0	-2.0	-2.0	95	-2.7	3	8	90	0.00	1014.463	0	0.000	0
20071121 03:35	-2.0	-2.0	-2.0	95	-2.7	3	6	112	0.00	1014.429	0	0.000	0
20071121 03:40	-2.1	-5.1	-2.1	95	-2.7	8	11	112	0.00	1014.497	0	0.000	0
20071121 03:45	-2.1	-4.6	-2.1	95	-2.7	6	14	112	0.00	1014.328	0	0.000	0
20071121 03:50	-2.1	-2.1	-2.1	95	-2.7	5	8	135	0.00	1014.294	0	0.000	0
20071121 03:55	-2.1	-2.1	-2.1	95	-2.7	2	6	90	0.00	1014.192	0	0.000	0
20071121 04:00	-2.0	-2.0	-2.0	95	-2.7	3	6	135	0.00	1014.328	0	0.000	0
20071121 04:05	-2.0	-4.5	-2.0	95	-2.7	6	14	112	0.00	1014.091	0	0.000	0
20071121 04:10	-2.1	-5.7	-2.1	95	-2.7	10	16	112	0.00	1013.955	0	0.000	0
20071121 04:15	-2.1	-5.1	-2.1	95	-2.7	8	14	135	0.00	1013.888	0	0.000	0
20071121 04:20	-2.1	-2.1	-2.1	95	-2.7	5	11	112	0.00	1014.091	0	0.000	0
20071121 04:25	-2.0	-2.0	-2.0	95	-2.7	3	8	135	0.00	1013.922	0	0.000	0
20071121 04:30	-1.9	-1.9	-1.9	95	-2.6	3	10	135	0.00	1014.023	0	0.000	0
20071121 04:35	-2.0	-2.0	-2.0	95	-2.7	5	11	112	0.00	1014.057	0	0.000	0
20071121 04:40	-2.1	-2.1	-2.1	95	-2.7	5	10	112	0.00	1013.922	0	0.000	0
20071121 04:45	-2.1	-4.6	-2.1	95	-2.7	6	11	112	0.00	1013.820	0	0.000	0
20071121 04:50	-2.1	-2.1	-2.1	95	-2.8	5	10	135	0.00	1013.888	0	0.000	0
20071121 04:55	-2.1	-4.6	-2.1	95	-2.8	6	13	135	0.00	1013.955	0	0.000	0
20071121 05:00	-2.2	-5.3	-2.2	95	-2.9	8	13	112	0.00	1013.786	0	0.000	0
20071121 05:05	-2.2	-4.7	-2.2	95	-2.9	6	13	112	0.00	1013.718	0	0.000	0
20071121 05:10	-2.1	-4.6	-2.1	95	-2.8	6	16	112	0.00	1013.786	0	0.000	0
20071121 05:15	-2.1	-5.2	-2.1	95	-2.8	8	14	112	0.00	1013.718	0	0.000	0
20071121 05:20	-2.1	-4.6	-2.1	95	-2.8	6	11	112	0.00	1013.684	0	0.000	0
20071121 05:25	-2.1	-4.6	-2.1	95	-2.8	6	13	112	0.00	1013.481	0	0.000	0
20071121 05:30	-2.1	-4.6	-2.1	95	-2.7	6	14	135	0.00	1013.447	0	0.000	0
20071121 05:35	-2.0	-2.0	-2.0	95	-2.7	5	8	135	0.00	1013.380	0	0.000	0
20071121 05:40	-2.0	-2.0	-2.0	95	-2.7	5	11	135	0.00	1013.414	0	0.000	0
20071121 05:45	-1.9	-4.4	-1.9	95	-2.6	6	13	112	0.00	1013.447	0	0.000	0
20071121 05:50	-1.9	-1.9	-1.9	95	-2.6	5	14	135	0.00	1013.210	0	0.000	0
20071121 05:55	-1.9	-4.4	-1.9	95	-2.6	6	13	112	0.00	1013.109	0	0.000	0
20071121 06:00	-1.8	-4.3	-1.8	95	-2.5	6	13	112	0.00	1013.177	0	0.000	0
20071121 06:05	-1.8	-1.8	-1.8	95	-2.5	5	11	135	0.00	1013.177	0	0.000	0
20071121 06:10	-1.8	-4.2	-1.8	95	-2.5	6	13	112	0.00	1013.109	0	0.000	0
20071121 06:15	-1.8	-4.2	-1.8	95	-2.5	6	11	135	0.00	1013.041	0	0.000	0
20071121 06:20	-1.8	-1.8	-1.8	95	-2.5	5	10	135	0.00	1012.973	0	0.000	0
20071121 06:25	-1.7	-1.7	-1.7	95	-2.4	5	11	135	0.00	1012.906	0	0.000	0
20071121 06:30	-1.7	-1.7	-1.7	95	-2.4	5	10	135	0.00	1012.838	0	0.000	0
20071121 06:35	-1.7	-4.7	-1.7	95	-2.4	8	11	112	0.00	1012.770	0	0.000	0
20071121 06:40	-1.7	-4.7	-1.7	95	-2.4	8	16	112	0.00	1012.669	0	0.000	0
20071121 06:45	-1.7	-1.7	-1.7	95	-2.4	3	6	135	0.00	1012.872	0	0.000	0
20071121 06:50	-1.6	-1.6	-1.6	95	-2.3	5	10	135	0.00	1012.872	0	0.000	0
20071121 06:55	-1.6	-4.6	-1.6	95	-2.3	8	16	112	0.00	1012.702	0	0.000	0
20071121 07:00	-1.7	-4.7	-1.7	95	-2.4	8	16	112	0.00	1012.770	0	0.000	0
20071121 07:05	-1.6	-4.0	-1.6	95	-2.3	6	11	112	0.00	1012.838	0	0.000	0
20071121 07:10	-1.6	-1.6	-1.6	95	-2.3	5	10	135	0.00	1012.770	0	0.000	0
20071121 07:15	-1.6	-1.6	-1.6	95	-2.3	3	8	135	0.00	1012.770	0	0.000	0
20071121 07:20	-1.6	-1.6	-1.6	95	-2.3	5	8	112	0.00	1012.872	0	0.000	0
20071121 07:25	-1.6	-1.6	-1.6	95	-2.3	5	11	112	0.00	1012.838	0	0.000	0
20071121 07:30	-1.6	-1.6	-1.6	95	-2.3	3	6	112	0.00	1012.872	0	0.000	0
20071121 07:35	-1.5	-1.5	-1.5	95	-2.2	3	8	135	0.00	1012.939	0	0.000	0
20071121 07:40	-1.5	-1.5	-1.5	95	-2.2	5	10	112	0.00	1012.838	0	0.000	0
20071121 07:45	-1.5	-3.9	-1.5	95	-2.2	6	11	112	0.00	1012.838	4	0.000	0
20071121 07:50	-1.6	-4.0	-1.6	95	-2.3	6	14	112	0.00	1012.770	5	0.000	0
20071121 07:55	-1.6	-4.0	-1.6	95	-2.3	6	16	135	0.00	1012.973	6	0.000	0
20071121 08:00	-1.6	-4.0	-1.6	95	-2.3	6	10	112	0.00	1013.007	8	0.000	0
20071121 08:05	-1.6	-4.0	-1.6	95	-2.3	6	11	112	0.00	1012.872	11	0.000	0
20071121 08:10	-1.5	-1.5	-1.5	95	-2.2	3	10	112	0.00	1013.007	13	0.000	0
20071121 08:15	-1.5	-1.5	-1.5	95	-2.2	5	8	112	0.00	1013.177	12	0.000	0
20071121 08:20	-1.5	-1.5	-1.5	95	-2.2	3	10	157	0.00	1013.346	14	0.000	0
20071121 08:25	-1.5	-3.9	-1.5	95	-2.2	6	11	135	0.00	1013.312	19	0.000	0
20071121 08:30	-1.5	-3.9	-1.5	95	-2.2	6	13	112	0.00	1013.380	27	0.000	0
20071121 08:35	-1.4	-1.4	-1.4	95	-2.1	5	11	135	0.00	1013.380	32	0.000	0
20071121 08:40	-1.4	-1.4	-1.4	94	-2.3	5	14	112	0.00	1013.447	42	0.000	0
20071121 08:45	-1.4	-3.8	-1.4	94	-2.3	6	14	135	0.00	1013.380	39	0.000	0
20071121 08:50	-1.4	-3.8	-1.4	95	-2.1	6	10	112	0.00	1013.346	40	0.000	0
20071121 08:55	-1.4	-1.4	-1.4	95	-2.1	5	14	135	0.00	1013.312	42	0.000	0
20071121 09:00	-1.3	-3.7	-1.3	94	-2.2	6	13	112	0.00	1013.075	46	0.000	0
20071121 09:05	-1.3	-4.3	-1.3	94	-2.2	8	16	112	0.00	1013.041	50	0.000	0
20071121 09:10	-1.3	-4.3	-1.3	94	-2.2	8	14	112	0.00	1013.075	52	0.000	0
20071121 09:15	-1.3	-1.3	-1.3	94	-2.2	5	10	112	0.00	1013.210	53	0.000	0
20071121 09:20	-1.3	-3.7	-1.3	94	-2.1	6	11	135	0.00	1013.210	52	0.000	0
20071121 09:25	-1.2	-3.6	-1.2	94	-2.1	6	14	112	0.00	1013.109	54	0.000	0
20071121 09:30	-1.2	-3.5	-1.2	94	-2.0	6	14	112	0.00	1013.109	59	0.000	0
20071121 09:35	-1.2	-3.5	-1.2	94	-2.0	6	11	112	0.00	1013.278	55	0.000	0
20071121 09:40	-1.1	-1.1	-1.1	94	-2.0	3	8	135	0.00	1013.414	53	0.000	0
20071121 09:45	-1.1	-1.1	-1.1	94	-1.9	3	8	135	0.00	1013.481	51	0.000	0
20071121 09:50	-1.1	-1.1	-1.1	94	-1.9	5	8	135	0.00	1013.549	50	0.000	0
20071121 09:55	-1.0	-1.0	-1.0	94	-1.8	3	6	112	0.00	1013.481	57	0.000	0
20071121 10:00	-0.9	-0.9	-0.9	94	-1.8	2	6	112	0.00	1013.786	60	0.020	0
20071121 10:05	-0.9	-0.9	-0.9	94	-1.8	3	6	135	0.00	1013.854	62	0.000	0
20071121 10:10	-0.9	-0.9	-0.9	94	-1.7	2	3	112	0.00	1013.820	69	0.000	0
20071121 10:15	-0.9	-0.9	-0.9	94	-1.7	0	2	112	0.00	1013.922	68	0.000	0
20071121 10:20	-0.8	-0.8	-0.8	93	-1.8	3	5	112	0.00	1013.718	72	0.000	0
20071121 10:25	-0.8	-0.8	-0.8	94	-1.7	2	5	90	0.00	1013.888	71	0.000	0
20071121 10:30	-0.8	-0.8	-0.8	93	-1.8	2	5	90	0.00	1013.888	68	0.000	0
20071121 10:35	-0.7	-0.7	-0.7	94	-1.6	2	5	135	0.00	1013.888	69	0.000	0
20071121 10:40	-0.7	-0.7	-0.7	93	-1.7	2	5	135	0.00	1013.888	77	0.000	0
20071121 10:45	-0.7	-0.7	-0.7	93	-1.7	2	5	135	0.00	1013.888	88	0.000	0
20071121 10:50	-0.6	-0.6	-0.6	93	-1.6	2	5	135	0.00	1013.854	92	0.000	0
20071121 10:55	-0.5	-0.5	-0.5	93	-1.5	0	5	135	0.00	1013.955	97	0.000	0
20071121 11:00	-0.5	-0.5	-0.5	93	-1.5	2	5	135	0.00	1014.023	112	0.020	0
20071121 11:05	-0.4	-0.4	-0.4	93	-1.4	0	2	135	0.00	1013.955	120	0.000	0
20071121 11:10	-0.4	-0.4	-0.4	93	-1.4	0	3	135	0.00	1013.989	128	0.000	1
20071121 11:15	-0.3	-0.3	-0.3	92	-1.5	2	5	135	0.00	1014.023	122	0.000	1
20071121 11:20	-0.3	-0.3	-0.3	92	-1.5	0	3	135	0.00	1014.091	125	0.000	1
20071121 11:25	-0.3	-0.3	-0.3	92	-1.4	2	3	135	0.00	1013.989	138	0.000	1
20071121 11:30	-0.3	-0.3	-0.3	92	-1.4	2	5	135	0.00	1013.989	136	0.000	1
20071121 11:35	-0.2	-0.2	-0.2	92	-1.4	2	5	135	0.00	1013.955	103	0.000	1
20071121 11:40	-0.3	-0.3	-0.3	92	-1.4	2	3	135	0.00	1013.955	121	0.000	1
20071121 11:45	-0.2	-0.2	-0.2	92	-1.4	2	5	135	0.00	1013.989	100	0.000	1
20071121 11:50	-0.3	-3.5	-0.3	92	-1.4	10	21	135	0.00	1013.346	136	0.000	1
20071121 11:55	-0.2	-3.0	-0.2	92	-1.4	8	18	112	0.00	1013.515	149	0.000	1
20071121 12:00	-0.2	-0.2	-0.2	92	-1.3	2	5	112	0.00	1013.617	152	0.040	1
20071121 12:05	0.1	0.1	0.1	93	-0.9	2	6	135	0.00	1013.718	198	0.000	1
20071121 12:10	0.2	0.2	0.2	92	-0.9	3	10	135	0.00	1013.549	213	0.000	1
20071121 12:15	0.4	0.4	0.4	92	-0.8	5	8	135	0.00	1013.515	283	0.000	1
20071121 12:20	0.6	0.6	0.6	91	-0.7	0	3	135	0.00	1013.651	306	0.000	1
20071121 12:25	0.8	0.8	0.8	90	-0.7	2	3	180	0.00	1013.752	287	0.000	1
20071121 12:30	0.9	0.9	0.9	90	-0.5	0	3	180	0.20	1013.651	174	0.000	1
20071121 12:35	0.9	0.9	0.9	89	-0.7	0	3	180	0.00	1013.651	169	0.000	1
20071121 12:40	0.8	0.8	0.8	89	-0.8	0	3	180	0.00	1013.684	139	0.000	1
20071121 12:45	0.8	0.8	0.8	89	-0.8	2	3	180	0.00	1013.752	158	0.000	1
20071121 12:50	0.7	0.7	0.7	90	-0.7	2	3	180	0.00	1013.684	194	0.000	1
20071121 12:55	0.6	0.6	0.6	90	-0.8	0	3	180	0.00	1013.684	163	0.000	1
20071121 13:00	0.6	0.6	0.6	90	-0.8	0	2	180	0.00	1013.888	163	0.060	1
20071121 13:05	0.7	0.7	0.7	90	-0.8	0	2	180	0.20	1013.922	147	0.000	1
20071121 13:10	0.8	0.8	0.8	91	-0.5	0	0	180	0.00	1013.955	144	0.000	1
20071121 13:15	0.9	0.9	0.9	90	-0.6	0	3	180	0.00	1013.989	145	0.000	1
20071121 13:20	0.9	0.9	0.9	90	-0.5	0	3	180	0.00	1014.125	132	0.000	1
20071121 13:25	1.1	1.1	1.1	90	-0.4	0	0	180	0.00	1014.192	132	0.000	1
20071121 13:30	1.2	1.2	1.2	90	-0.2	0	3	180	0.00	1014.226	134	0.000	1
20071121 13:35	1.3	1.3	1.3	90	-0.2	2	5	180	0.00	1014.192	147	0.000	1
20071121 13:40	1.3	1.3	1.3	89	-0.3	2	3	180	0.00	1014.362	156	0.000	1
20071121 13:45	1.2	1.2	1.2	89	-0.4	2	5	180	0.00	1014.429	141	0.000	0
20071121 13:50	1.2	1.2	1.2	90	-0.2	0	3	180	0.00	1014.463	143	0.000	0
20071121 13:55	1.2	1.2	1.2	90	-0.3	3	6	180	0.20	1014.260	54	0.000	0
20071121 14:00	1.2	1.2	1.2	90	-0.3	2	3	180	0.00	1014.226	57	0.040	0
20071121 14:05	1.1	1.1	1.1	90	-0.3	0	3	180	0.00	1014.396	52	0.000	0
20071121 14:10	1.1	1.1	1.1	90	-0.4	0	3	180	0.00	1014.429	62	0.000	0
20071121 14:15	1.0	1.0	1.0	90	-0.5	2	3	180	0.00	1014.429	69	0.000	0
20071121 14:20	0.9	0.9	0.9	90	-0.5	2	5	180	0.00	1014.429	71	0.000	0
20071121 14:25	0.9	0.9	0.9	91	-0.4	2	5	180	0.00	1014.531	76	0.000	0
20071121 14:30	1.0	1.0	1.0	91	-0.3	0	2	180	0.00	1014.565	73	0.000	0
20071121 14:35	1.1	1.1	1.1	91	-0.2	0	3	180	0.00	1014.497	66	0.000	0
20071121 14:40	1.1	1.1	1.1	91	-0.2	0	2	180	0.00	1014.599	57	0.000	0
20071121 14:45	1.1	1.1	1.1	91	-0.2	0	2	180	0.00	1014.599	49	0.000	0
20071121 14:50	1.0	1.0	1.0	91	-0.3	0	3	180	0.20	1014.768	41	0.000	0
20071121 14:55	1.0	1.0	1.0	91	-0.3	0	2	180	0.00	1014.836	39	0.000	0
20071121 15:00	1.0	1.0	1.0	91	-0.3	0	3	180	0.00	1014.768	33	0.020	0
20071121 15:05	1.1	1.1	1.1	91	-0.2	0	3	180	0.00	1014.700	23	0.000	0
20071121 15:10	1.2	1.2	1.2	91	-0.1	2	6	180	0.00	1014.633	21	0.000	0
20071121 15:15	1.2	1.2	1.2	91	-0.1	2	5	180	0.00	1014.633	35	0.000	0
20071121 15:20	1.3	1.3	1.3	91	-0.0	0	3	180	0.00	1014.802	41	0.000	0
20071121 15:25	1.3	1.3	1.3	91	0.0	0	0	180	0.00	1014.904	54	0.000	0
20071121 15:30	1.3	1.3	1.3	91	0.0	0	3	180	0.00	1014.802	77	0.000	0
20071121 15:35	1.4	1.4	1.4	91	0.1	0	3	180	0.00	1014.768	83	0.000	0
20071121 15:40	1.4	1.4	1.4	91	0.1	2	5	180	0.00	1014.666	73	0.000	0
20071121 15:45	1.4	1.4	1.4	91	0.1	0	3	180	0.00	1014.599	49	0.000	0
20071121 15:50	1.4	1.4	1.4	91	0.1	0	3	180	0.00	1014.802	39	0.000	0
20071121 15:55	1.3	1.3	1.3	91	0.0	0	3	180	0.00	1014.937	36	0.000	0
20071121 16:00	1.3	1.3	1.3	91	0.0	3	5	180	0.00	1014.937	36	0.020	0
20071121 16:05	1.3	1.3	1.3	91	0.0	2	5	180	0.00	1014.937	35	0.000	0
20071121 16:10	1.3	1.3	1.3	91	0.0	2	5	180	0.00	1014.904	27	0.000	0
20071121 16:15	1.3	1.3	1.3	92	0.2	0	5	180	0.00	1014.904	20	0.000	0
20071121 16:20	1.3	1.3	1.3	91	0.0	2	5	180	0.00	1014.971	13	0.000	0
20071121 16:25	1.3	1.3	1.3	91	-0.0	2	3	180	0.20	1014.937	7	0.000	0
20071121 16:30	1.2	1.2	1.2	91	-0.1	0	3	180	0.00	1014.937	4	0.000	0
20071121 16:35	1.1	1.1	1.1	91	-0.2	0	3	180	0.00	1015.073	0	0.000	0
20071121 16:40	0.9	0.9	0.9	92	-0.2	2	3	180	0.00	1015.039	0	0.000	0
20071121 16:45	0.8	0.8	0.8	92	-0.3	2	5	180	0.00	1015.005	0	0.000	0
20071121 16:50	0.7	0.7	0.7	92	-0.4	2	3	180	0.00	1015.276	0	0.000	0
20071121 16:55	0.7	0.7	0.7	92	-0.5	0	3	180	0.00	1015.242	0	0.000	0
20071121 17:00	0.6	0.6	0.6	92	-0.6	0	0	180	0.00	1015.310	0	0.000	0
20071121 17:05	0.4	0.4	0.4	92	-0.7	2	3	180	0.00	1015.208	0	0.000	0
20071121 17:10	0.3	0.3	0.3	92	-0.8	2	3	180	0.00	1015.242	0	0.000	0
20071121 17:15	0.3	0.3	0.3	92	-0.9	2	3	180	0.00	1015.242	0	0.000	0
20071121 17:20	0.2	0.2	0.2	93	-0.8	3	5	180	0.00	1015.344	0	0.000	0
20071121 17:25	0.1	0.1	0.1	93	-0.9	3	5	180	0.00	1015.208	0	0.000	0
20071121 17:30	0.1	0.1	0.1	93	-0.9	2	3	180	0.00	1015.107	0	0.000	0
20071121 17:35	0.0	0.0	0.0	93	-1.0	3	5	180	0.00	1015.208	0	0.000	0
20071121 17:40	-0.1	-0.1	-0.1	93	-1.0	2	5	180	0.00	1015.242	0	0.000	0
20071121 17:45	-0.1	-0.1	-0.1	93	-1.0	0	3	180	0.00	1015.242	0	0.000	0
20071121 17:50	-0.2	-0.2	-0.2	93	-1.2	0	2	180	0.00	1015.344	0	0.000	0
20071121 17:55	-0.2	-0.2	-0.2	93	-1.2	0	2	180	0.00	1015.344	0	0.000	0
20071121 18:00	-0.3	-0.3	-0.3	93	-1.3	2	5	180	0.00	1015.378	0	0.000	0
20071121 18:05	-0.3	-0.3	-0.3	93	-1.3	2	5	180	0.00	1015.445	0	0.000	0
20071121 18:10	-0.4	-0.4	-0.4	93	-1.4	2	5	180	0.00	1015.479	0	0.000	0
20071121 18:15	-0.5	-0.5	-0.5	93	-1.5	2	3	180	0.00	1015.513	0	0.000	0
20071121 18:20	-0.6	-0.6	-0.6	94	-1.4	0	2	180	0.00	1015.479	0	0.000	0
20071121 18:25	-0.6	-0.6	-0.6	94	-1.5	2	3	180	0.00	1015.479	0	0.000	0
20071121 18:30	-0.7	-0.7	-0.7	94	-1.6	3	6	180	0.00	1015.378	0	0.000	0
20071121 18:35	-0.8	-0.8	-0.8	94	-1.6	5	6	180	0.00	1015.445	0	0.000	0
20071121 18:40	-0.8	-0.8	-0.8	94	-1.7	3	6	180	0.00	1015.445	0	0.000	0
20071121 18:45	-0.8	-0.8	-0.8	94	-1.7	0	5	180	0.00	1015.513	0	0.000	0
20071121 18:50	-0.8	-0.8	-0.8	94	-1.7	0	3	180	0.00	1015.513	0	0.000	0
20071121 18:55	-0.8	-0.8	-0.8	94	-1.7	0	3	180	0.00	1015.344	0	0.000	0
20071121 19:00	-0.9	-0.9	-0.9	94	-1.7	0	3	180	0.00	1015.276	0	0.000	0
20071121 19:05	-0.9	-0.9	-0.9	95	-1.6	2	3	180	0.00	1015.513	0	0.000	0
20071121 19:10	-1.0	-1.0	-1.0	95	-1.7	2	5	180	0.00	1015.615	0	0.000	0
20071121 19:15	-1.0	-1.0	-1.0	95	-1.7	2	5	180	0.00	1015.445	0	0.000	0
20071121 19:20	-1.1	-1.1	-1.1	95	-1.8	2	5	180	0.00	1015.479	0	0.000	0
20071121 19:25	-1.1	-1.1	-1.1	95	-1.8	3	6	180	0.00	1015.513	0	0.000	0
20071121 19:30	-1.1	-1.1	-1.1	95	-1.8	3	6	180	0.00	1015.479	0	0.000	0
20071121 19:35	-1.2	-1.2	-1.2	95	-1.9	3	6	180	0.00	1015.411	0	0.000	0
20071121 19:40	-1.2	-1.2	-1.2	95	-1.9	2	5	180	0.00	1015.513	0	0.000	0
20071121 19:45	-1.2	-1.2	-1.2	95	-1.9	2	3	180	0.00	1015.513	0	0.000	0
20071121 19:50	-1.2	-1.2	-1.2	95	-1.9	2	3	180	0.00	1015.649	0	0.000	0
20071121 19:55	-1.2	-1.2	-1.2	95	-1.9	0	3	180	0.00	1015.682	0	0.000	0
20071121 20:00	-1.2	-1.2	-1.2	95	-1.9	0	2	180	0.00	1015.513	0	0.000	0
20071121 20:05	-1.2	-1.2	-1.2	95	-1.9	0	0	180	0.00	1015.479	0	0.000	0
20071121 20:10	-1.2	-1.2	-1.2	95	-1.9	0	2	180	0.00	1015.649	0	0.000	0
20071121 20:15	-1.2	-1.2	-1.2	95	-1.9	0	2	180	0.00	1015.649	0	0.000	0
20071121 20:20	-1.2	-1.2	-1.2	95	-1.9	0	0	180	0.00	1015.682	0	0.000	0
20071121 20:25	-1.2	-1.2	-1.2	95	-1.9	0	0	180	0.00	1015.615	0	0.000	0
20071121 20:30	-1.2	-1.2	-1.2	95	-1.9	2	5	180	0.00	1015.378	0	0.000	0
20071121 20:35	-1.2	-1.2	-1.2	95	-1.9	2	5	180	0.00	1015.242	0	0.000	0
20071121 20:40	-1.2	-1.2	-1.2	95	-1.9	2	3	180	0.00	1015.344	0	0.000	0
20071121 20:45	-1.2	-1.2	-1.2	95	-1.9	2	6	180	0.00	1015.581	0	0.000	0
20071121 20:50	-1.2	-1.2	-1.2	95	-1.9	0	2	180	0.00	1015.615	0	0.000	0
20071121 20:55	-1.2	-1.2	-1.2	95	-1.9	0	2	180	0.00	1015.547	0	0.000	0
20071121 21:00	-1.2	-1.2	-1.2	95	-1.9	0	3	180	0.00	1015.615	0	0.000	0
20071121 21:05	-1.2	-1.2	-1.2	95	-1.9	2	5	180	0.00	1015.445	0	0.000	0
20071121 21:10	-1.2	-1.2	-1.2	95	-1.9	2	5	180	0.00	1015.445	0	0.000	0
20071121 21:15	-1.2	-1.2	-1.2	95	-1.9	2	6	180	0.00	1015.513	0	0.000	0
20071121 21:20	-1.2	-1.2	-1.2	95	-1.9	0	2	180	0.00	1015.513	0	0.000	0
20071121 21:25	-1.3	-1.3	-1.3	95	-2.0	0	3	180	0.00	1015.547	0	0.000	0
20071121 21:30	-1.3	-1.3	-1.3	95	-2.0	0	3	180	0.00	1015.581	0	0.000	0
20071121 21:35	-1.3	-1.3	-1.3	95	-2.0	2	5	180	0.00	1015.615	0	0.000	0
20071121 21:40	-1.3	-1.3	-1.3	95	-2.0	3	5	180	0.00	1015.649	0	0.000	0
20071121 21:45	-1.3	-1.3	-1.3	95	-2.0	2	5	180	0.00	1015.615	0	0.000	0
20071121 21:50	-1.3	-1.3	-1.3	95	-2.0	3	5	180	0.00	1015.513	0	0.000	0
20071121 21:55	-1.4	-1.4	-1.4	95	-2.1	0	3	180	0.00	1015.513	0	0.000	0
20071121 22:00	-1.4	-1.4	-1.4	95	-2.1	2	3	180	0.00	1015.344	0	0.000	0
20071121 22:05	-1.4	-1.4	-1.4	95	-2.1	0	3	180	0.00	1015.208	0	0.000	0
20071121 22:10	-1.4	-1.4	-1.4	95	-2.1	0	3	180	0.00	1015.174	0	0.000	0
20071121 22:15	-1.4	-1.4	-1.4	95	-2.1	3	5	180	0.00	1015.107	0	0.000	0
20071121 22:20	-1.4	-1.4	-1.4	95	-2.1	0	3	180	0.00	1015.174	0	0.000	0
20071121 22:25	-1.4	-1.4	-1.4	95	-2.1	0	3	180	0.00	1015.208	0	0.000	0
20071121 22:30	-1.3	-1.3	-1.3	95	-2.0	2	3	180	0.00	1015.107	0	0.000	0
20071121 22:35	-1.3	-1.3	-1.3	95	-2.0	0	5	180	0.00	1015.039	0	0.000	0
20071121 22:40	-1.3	-1.3	-1.3	95	-2.0	2	5	180	0.00	1015.005	0	0.000	0
20071121 22:45	-1.3	-1.3	-1.3	95	-2.0	0	3	180	0.00	1015.039	0	0.000	0
20071121 22:50	-1.3	-1.3	-1.3	95	-2.0	2	3	180	0.00	1015.005	0	0.000	0
20071121 22:55	-1.2	-1.2	-1.2	95	-1.9	3	5	180	0.00	1015.039	0	0.000	0
20071121 23:00	-1.2	-1.2	-1.2	95	-1.9	2	5	180	0.00	1015.039	0	0.000	0
20071121 23:05	-1.2	-1.2	-1.2	95	-1.9	2	5	180	0.00	1015.005	0	0.000	0
20071121 23:10	-1.3	-1.3	-1.3	95	-2.0	0	3	180	0.00	1015.107	0	0.000	0
20071121 23:15	-1.3	-1.3	-1.3	95	-2.0	2	5	180	0.00	1015.005	0	0.000	0
20071121 23:20	-1.2	-1.2	-1.2	95	-1.9	2	5	180	0.00	1015.039	0	0.000	0
20071121 23:25	-1.3	-1.3	-1.3	95	-2.0	2	3	180	0.00	1015.107	0	0.000	0
20071121 23:30	-1.3	-1.3	-1.3	95	-2.0	2	3	180	0.00	1015.005	0	0.000	0
20071121 23:35	-1.3	-1.3	-1.3	95	-2.0	3	6	180	0.00	1014.971	0	0.000	0
20071121 23:40	-1.2	-1.2	-1.2	95	-1.9	0	3	180	0.00	1014.971	0	0.000	0
20071121 23:45	-1.2	-1.2	-1.2	95	-1.9	0	0	180	0.00	1014.870	0	0.000	0
20071121 23:50	-1.2	-1.2	-1.2	95	-1.9	2	5	180	0.00	1014.904	0	0.000	0
20071121 23:55	-1.2	-1.2	-1.2	95	-1.9	2	5	180	0.00	1014.734	0	0.000	0
20071121 24:00	-1.1	-1.1	-1.1	95	-1.8	3	5	180	0.00	1014.700	0	0.000	0



Please note the license to use and transfer of this data:
http://creativecommons.org/licenses/by-nc-sa/3.0/deed.en

Bitte beachten sie die Lizenz zur Verwertung und Weitergabe der Daten:
http://creativecommons.org/licenses/by-nc-sa/3.0/deed.de

zurück zur Übersicht der Archivdaten (Monats und Tagesdaten)

Cookies helfen bei der Bereitstellung von Inhalten. Durch die Nutzung dieser Seiten erklärst du dich damit einverstanden, dass Cookies auf deinem Rechner gespeichert werden. Weitere Information